createdAt,value
2022-09-21T00:03:00.186Z,99.90
2022-09-21T00:06:13.201Z,99.90
2022-09-21T00:09:14.452Z,99.90
2022-09-21T00:12:15.787Z,99.90
2022-09-21T00:15:18.079Z,99.90
2022-09-21T00:18:19.095Z,99.90
2022-09-21T00:21:21.511Z,99.90
2022-09-21T00:24:22.420Z,99.90
2022-09-21T00:27:30.239Z,99.90
2022-09-21T00:30:31.315Z,99.90
2022-09-21T00:33:33.253Z,99.90
2022-09-21T00:36:34.852Z,99.90
2022-09-21T00:39:36.058Z,99.90
2022-09-21T00:42:38.171Z,99.90
2022-09-21T00:45:39.340Z,99.90
2022-09-21T00:48:41.110Z,99.90
2022-09-21T00:51:42.819Z,99.90
2022-09-21T00:54:58.522Z,99.90
2022-09-21T00:58:09.664Z,99.90
2022-09-21T01:01:12.984Z,99.90
2022-09-21T01:04:19.016Z,99.90
2022-09-21T01:07:29.471Z,99.90
2022-09-21T01:10:59.433Z,99.90
2022-09-21T01:14:31.260Z,99.90
2022-09-21T01:18:03.269Z,99.90
2022-09-21T01:21:22.422Z,99.90
2022-09-21T01:24:44.699Z,99.90
2022-09-21T01:28:06.035Z,99.90
2022-09-21T01:31:14.269Z,99.90
2022-09-21T01:34:36.207Z,99.90
2022-09-21T01:38:19.728Z,99.90
2022-09-21T01:41:27.171Z,99.90
2022-09-21T01:44:33.462Z,99.90
2022-09-21T01:47:39.791Z,99.90
2022-09-21T01:50:54.251Z,99.90
2022-09-21T01:54:10.314Z,99.90
2022-09-21T01:57:54.320Z,99.90
2022-09-21T02:00:58.303Z,99.90
2022-09-21T02:04:11.479Z,99.90
2022-09-21T02:07:12.756Z,99.90
2022-09-21T02:10:35.897Z,99.90
2022-09-21T02:13:45.709Z,99.90
2022-09-21T02:17:07.597Z,99.90
2022-09-21T02:20:30.420Z,99.90
2022-09-21T02:23:49.423Z,99.90
2022-09-21T02:27:06.532Z,99.90
2022-09-21T02:30:19.109Z,99.90
2022-09-21T02:33:37.855Z,99.90
2022-09-21T02:36:57.086Z,99.90
2022-09-21T02:40:23.248Z,99.90
2022-09-21T02:43:39.760Z,99.90
2022-09-21T02:47:01.928Z,99.90
2022-09-21T02:50:13.026Z,99.90
2022-09-21T02:53:24.841Z,99.90
2022-09-21T02:56:27.090Z,99.90
2022-09-21T02:59:28.893Z,99.90
2022-09-21T03:02:43.432Z,99.90
2022-09-21T03:05:48.759Z,99.90
2022-09-21T03:08:49.924Z,99.90
2022-09-21T03:11:52.001Z,99.90
2022-09-21T03:14:53.422Z,99.90
2022-09-21T03:17:54.520Z,99.90
2022-09-21T03:20:55.444Z,99.90
2022-09-21T03:23:56.216Z,99.90
2022-09-21T03:26:57.028Z,99.90
2022-09-21T03:30:01.928Z,99.90
2022-09-21T03:33:05.245Z,99.90
2022-09-21T03:36:06.697Z,99.90
2022-09-21T03:39:07.763Z,99.90
2022-09-21T03:42:10.162Z,99.90
2022-09-21T03:45:13.131Z,99.90
2022-09-21T03:48:14.167Z,99.90
2022-09-21T03:51:15.200Z,99.90
2022-09-21T03:54:16.249Z,99.90
2022-09-21T03:57:17.457Z,99.90
2022-09-21T04:00:19.016Z,99.90
2022-09-21T04:03:20.033Z,99.90
2022-09-21T04:06:20.941Z,99.90
2022-09-21T04:09:22.072Z,99.90
2022-09-21T04:12:23.285Z,99.90
2022-09-21T04:15:24.938Z,99.90
2022-09-21T04:18:25.833Z,99.90
2022-09-21T04:21:26.642Z,99.90
2022-09-21T04:24:28.227Z,99.90
2022-09-21T04:27:29.086Z,99.90
2022-09-21T04:30:33.239Z,99.90
2022-09-21T04:33:37.632Z,99.90
2022-09-21T04:36:38.490Z,99.90
2022-09-21T04:39:40.049Z,99.90
2022-09-21T04:42:41.114Z,99.90
2022-09-21T04:45:41.901Z,99.90
2022-09-21T04:48:43.670Z,99.90
2022-09-21T04:51:44.888Z,99.90
2022-09-21T04:54:46.069Z,99.90
2022-09-21T04:57:47.331Z,99.90
2022-09-21T05:00:51.586Z,99.90
2022-09-21T05:03:52.414Z,99.90
2022-09-21T05:06:54.254Z,99.90
2022-09-21T05:10:03.598Z,99.90
2022-09-21T05:13:04.156Z,99.90
2022-09-21T05:16:05.386Z,99.90
2022-09-21T05:19:06.319Z,99.90
2022-09-21T05:22:07.878Z,99.90
2022-09-21T05:25:09.890Z,99.90
2022-09-21T05:28:11.353Z,99.90
2022-09-21T05:31:18.802Z,99.90
2022-09-21T05:35:06.670Z,99.90
2022-09-21T05:38:18.027Z,99.90
2022-09-21T05:41:19.620Z,99.90
2022-09-21T05:44:21.799Z,99.90
2022-09-21T05:48:03.338Z,99.90
2022-09-21T05:51:43.291Z,99.90
2022-09-21T05:55:07.490Z,99.90
2022-09-21T05:59:01.607Z,99.90
2022-09-21T06:02:46.305Z,99.90
2022-09-21T06:05:47.259Z,99.90
2022-09-21T06:08:48.223Z,99.90
2022-09-21T06:11:49.137Z,99.90
2022-09-21T06:14:49.845Z,99.90
2022-09-21T06:17:50.613Z,99.90
2022-09-21T06:20:51.793Z,99.90
2022-09-21T06:23:52.363Z,99.90
2022-09-21T06:26:53.232Z,99.90
2022-09-21T06:29:54.005Z,99.90
2022-09-21T06:32:54.671Z,99.90
2022-09-21T06:35:59.467Z,99.90
2022-09-21T06:39:00.367Z,99.90
2022-09-21T06:42:01.500Z,99.90
2022-09-21T06:45:03.681Z,99.90
2022-09-21T06:48:04.601Z,99.90
2022-09-21T06:51:06.939Z,99.90
2022-09-21T06:54:07.768Z,99.90
2022-09-21T06:57:08.622Z,99.90
2022-09-21T07:00:12.794Z,99.90
2022-09-21T07:03:13.808Z,99.90
2022-09-21T07:06:15.787Z,99.90
2022-09-21T07:12:38.248Z,99.90
2022-09-21T07:15:39.458Z,99.90
2022-09-21T07:18:43.740Z,99.90
2022-09-21T07:21:44.951Z,99.90
2022-09-21T07:24:45.614Z,99.90
2022-09-21T07:27:48.281Z,99.90
2022-09-21T07:30:50.012Z,99.90
2022-09-21T07:33:57.417Z,99.90
2022-09-21T07:36:58.305Z,99.90
2022-09-21T07:39:59.022Z,99.90
2022-09-21T07:43:04.799Z,99.90
2022-09-21T07:46:07.790Z,99.90
2022-09-21T07:49:11.833Z,99.90
2022-09-21T07:52:13.030Z,99.90
2022-09-21T07:55:14.920Z,99.90
2022-09-21T07:58:34.013Z,99.90
2022-09-21T08:01:38.093Z,99.90
2022-09-21T08:04:38.932Z,99.90
2022-09-21T08:07:40.292Z,99.90
2022-09-21T08:10:41.409Z,99.90
2022-09-21T08:13:42.544Z,99.90
2022-09-21T08:16:43.729Z,99.90
2022-09-21T08:19:44.776Z,99.90
2022-09-21T08:22:45.836Z,99.90
2022-09-21T08:25:46.921Z,99.90
2022-09-21T08:28:51.678Z,99.90
2022-09-21T08:31:56.397Z,99.90
2022-09-21T08:34:57.445Z,99.90
2022-09-21T08:37:58.542Z,99.90
2022-09-21T08:41:03.704Z,99.90
2022-09-21T08:44:19.201Z,99.90
2022-09-21T08:47:41.716Z,99.90
2022-09-21T08:51:05.927Z,99.90
2022-09-21T08:54:51.815Z,99.40
2022-09-21T08:57:53.594Z,98.10
2022-09-21T09:01:36.562Z,97.70
2022-09-21T09:05:11.211Z,96.50
2022-09-21T09:09:06.199Z,93.00
2022-09-21T09:12:28.179Z,92.80
2022-09-21T09:16:01.215Z,91.20
2022-09-21T09:19:48.204Z,89.40
2022-09-21T09:23:05.768Z,86.40
2022-09-21T09:26:26.569Z,87.00
2022-09-21T09:30:06.461Z,85.00
2022-09-21T09:33:17.937Z,84.40
2022-09-21T09:36:34.761Z,86.20
2022-09-21T09:39:45.410Z,82.40
2022-09-21T09:43:12.037Z,81.30
2022-09-21T09:46:51.277Z,82.30
2022-09-21T09:50:13.251Z,82.20
2022-09-21T09:53:20.601Z,81.00
2022-09-21T09:56:22.067Z,81.50
2022-09-21T09:59:54.681Z,83.00
2022-09-21T10:03:01.505Z,81.50
2022-09-21T10:06:02.548Z,79.50
2022-09-21T10:09:35.711Z,77.40
2022-09-21T10:12:39.501Z,75.90
2022-09-21T10:16:04.549Z,74.80
2022-09-21T10:19:06.049Z,74.00
2022-09-21T10:22:07.223Z,73.20
2022-09-21T10:25:17.906Z,71.30
2022-09-21T10:28:22.637Z,67.40
2022-09-21T10:31:27.236Z,63.20
2022-09-21T10:34:32.382Z,62.70
2022-09-21T10:37:41.503Z,65.00
2022-09-21T10:40:45.012Z,64.70
2022-09-21T10:43:46.283Z,68.20
2022-09-21T10:46:50.391Z,63.50
2022-09-21T10:49:56.515Z,61.20
2022-09-21T10:53:31.611Z,60.40
2022-09-21T10:56:32.459Z,62.40
2022-09-21T10:59:37.322Z,60.60
2022-09-21T11:02:39.276Z,56.90
2022-09-21T11:05:45.428Z,59.00
2022-09-21T11:08:56.906Z,58.90
2022-09-21T11:12:45.284Z,56.90
2022-09-21T11:16:13.961Z,56.50
2022-09-21T11:19:57.961Z,57.20
2022-09-21T11:23:25.114Z,55.20
2022-09-21T11:26:56.630Z,55.40
2022-09-21T11:30:09.318Z,61.00
2022-09-21T11:34:08.072Z,65.40
2022-09-21T11:37:45.414Z,64.70
2022-09-21T11:41:15.753Z,62.40
2022-09-21T11:44:55.658Z,63.90
2022-09-21T11:48:18.824Z,64.10
2022-09-21T11:51:40.326Z,65.60
2022-09-21T11:54:59.845Z,60.80
2022-09-21T11:58:23.167Z,63.50
2022-09-21T12:01:36.845Z,62.80
2022-09-21T12:05:21.295Z,62.70
2022-09-21T12:08:56.388Z,61.70
2022-09-21T12:12:37.217Z,63.70
2022-09-21T12:16:06.351Z,59.20
2022-09-21T12:19:34.127Z,64.40
2022-09-21T12:22:42.022Z,63.50
2022-09-21T12:25:52.180Z,62.10
2022-09-21T12:29:02.015Z,58.20
2022-09-21T12:32:33.375Z,58.30
2022-09-21T12:36:18.876Z,57.20
2022-09-21T12:39:29.106Z,55.00
2022-09-21T12:42:54.314Z,55.10
2022-09-21T12:46:11.286Z,55.00
2022-09-21T12:49:28.415Z,56.70
2022-09-21T12:52:29.807Z,55.80
2022-09-21T12:56:14.321Z,54.70
2022-09-21T12:59:45.929Z,53.80
2022-09-21T13:03:07.096Z,55.60
2022-09-21T13:06:31.769Z,54.00
2022-09-21T13:09:33.002Z,55.60
2022-09-21T13:12:44.766Z,55.80
2022-09-21T13:15:50.118Z,52.80
2022-09-21T13:19:13.911Z,53.50
2022-09-21T13:22:24.114Z,54.30
2022-09-21T13:25:30.849Z,52.10
2022-09-21T13:28:59.113Z,53.10
2022-09-21T13:32:03.977Z,53.80
2022-09-21T13:35:48.027Z,55.10
2022-09-21T13:38:51.579Z,55.60
2022-09-21T13:42:02.933Z,54.00
2022-09-21T13:45:13.896Z,54.70
2022-09-21T13:48:29.936Z,57.10
2022-09-21T13:51:34.411Z,56.60
2022-09-21T13:54:51.797Z,55.10
2022-09-21T13:57:56.885Z,54.80
2022-09-21T14:01:03.382Z,54.90
2022-09-21T14:04:25.414Z,54.20
2022-09-21T14:07:31.365Z,55.90
2022-09-21T14:10:37.586Z,56.10
2022-09-21T14:13:44.601Z,57.30
2022-09-21T14:16:45.872Z,55.90
2022-09-21T14:19:50.106Z,55.70
2022-09-21T14:23:31.214Z,55.50
2022-09-21T14:26:42.632Z,57.70
2022-09-21T14:29:53.377Z,58.90
2022-09-21T14:33:00.156Z,59.00
2022-09-21T14:36:08.359Z,60.80
2022-09-21T14:39:40.940Z,59.80
2022-09-21T14:42:42.843Z,57.60
2022-09-21T14:45:56.387Z,57.50
2022-09-21T14:49:35.026Z,58.20
2022-09-21T14:52:45.077Z,58.40
2022-09-21T14:55:51.965Z,56.40
2022-09-21T14:59:34.462Z,56.20
2022-09-21T15:02:37.342Z,59.30
2022-09-21T15:05:44.740Z,59.80
2022-09-21T15:09:39.539Z,59.40
2022-09-21T15:12:54.360Z,62.60
2022-09-21T15:16:25.910Z,60.90
2022-09-21T15:19:37.443Z,60.60
2022-09-21T15:22:44.091Z,60.30
2022-09-21T15:26:00.189Z,61.50
2022-09-21T15:29:09.635Z,63.20
2022-09-21T15:32:30.442Z,62.40
2022-09-21T15:35:33.711Z,64.70
2022-09-21T15:38:36.681Z,66.50
2022-09-21T15:41:43.055Z,67.10
2022-09-21T15:44:48.772Z,66.30
2022-09-21T15:47:49.783Z,65.70
2022-09-21T15:51:15.174Z,65.40
2022-09-21T15:54:32.285Z,67.90
2022-09-21T15:57:43.322Z,68.30
2022-09-21T16:00:55.990Z,68.00
2022-09-21T16:04:07.602Z,69.60
2022-09-21T16:07:37.810Z,69.10
2022-09-21T16:10:40.999Z,70.50
2022-09-21T16:14:05.963Z,75.10
2022-09-21T16:17:28.235Z,78.00
2022-09-21T16:20:40.830Z,81.10
2022-09-21T16:23:42.428Z,82.90
2022-09-21T16:27:02.530Z,86.00
2022-09-21T16:30:04.555Z,86.80
2022-09-21T16:33:47.454Z,87.50
2022-09-21T16:36:54.069Z,89.10
2022-09-21T16:39:58.137Z,90.30
2022-09-21T16:43:00.040Z,89.20
2022-09-21T16:46:03.609Z,89.60
2022-09-21T16:49:04.923Z,91.00
2022-09-21T16:52:07.549Z,91.80
2022-09-21T16:55:08.746Z,92.40
2022-09-21T16:58:09.825Z,93.00
2022-09-21T17:01:15.640Z,92.90
2022-09-21T17:04:22.586Z,93.30
2022-09-21T17:07:23.761Z,95.10
2022-09-21T17:10:32.909Z,96.50
2022-09-21T17:13:33.688Z,96.20
2022-09-21T17:16:34.959Z,97.40
2022-09-21T17:19:36.261Z,97.10
2022-09-21T17:22:38.198Z,97.60
2022-09-21T17:25:39.138Z,98.70
2022-09-21T17:28:40.997Z,99.40
2022-09-21T17:31:42.243Z,99.10
2022-09-21T17:34:43.734Z,99.80
2022-09-21T17:37:45.029Z,99.90
2022-09-21T17:40:46.949Z,99.90
2022-09-21T17:44:07.766Z,99.90
2022-09-21T17:47:28.524Z,99.90
2022-09-21T17:50:30.072Z,99.90
2022-09-21T17:53:34.659Z,99.90
2022-09-21T17:56:56.160Z,99.90
2022-09-21T18:00:16.600Z,99.90
2022-09-21T18:03:28.194Z,99.90
2022-09-21T18:06:30.433Z,99.90
2022-09-21T18:09:31.921Z,99.90
2022-09-21T18:13:03.230Z,99.90
2022-09-21T18:16:21.793Z,99.90
2022-09-21T18:20:00.331Z,99.90
2022-09-21T18:23:46.140Z,99.90
2022-09-21T18:26:49.118Z,99.90
2022-09-21T18:29:50.343Z,99.90
2022-09-21T18:33:01.275Z,99.90
2022-09-21T18:36:27.159Z,99.90
2022-09-21T18:40:14.202Z,99.90
2022-09-21T18:43:57.975Z,99.90
2022-09-21T18:47:25.970Z,99.90
2022-09-21T18:50:39.356Z,99.90
2022-09-21T18:53:53.645Z,99.90
2022-09-21T18:56:56.111Z,99.90
2022-09-21T18:59:57.485Z,99.90
2022-09-21T19:03:16.418Z,99.90
2022-09-21T19:07:10.677Z,99.90
2022-09-21T19:10:22.753Z,99.90
2022-09-21T19:14:05.439Z,99.90
2022-09-21T19:17:33.804Z,99.90
2022-09-21T19:20:43.651Z,99.90
2022-09-21T19:24:06.819Z,99.90
2022-09-21T19:27:38.868Z,99.90
2022-09-21T19:30:40.946Z,99.90
2022-09-21T19:33:50.763Z,99.90
2022-09-21T19:36:52.651Z,99.90
2022-09-21T19:39:53.706Z,99.90
2022-09-21T19:43:43.101Z,99.90
2022-09-21T19:47:06.524Z,99.90
2022-09-21T19:50:18.320Z,99.90
2022-09-21T19:53:37.985Z,99.90
2022-09-21T19:57:10.626Z,99.90
2022-09-21T20:00:17.720Z,99.90
2022-09-21T20:03:37.660Z,99.90
2022-09-21T20:06:56.846Z,99.90
2022-09-21T20:10:24.258Z,99.90
2022-09-21T20:13:56.553Z,99.90
2022-09-21T20:17:02.266Z,99.90
2022-09-21T20:20:26.629Z,99.90
2022-09-21T20:23:28.982Z,99.90
2022-09-21T20:26:30.214Z,99.90
2022-09-21T20:29:31.359Z,99.90
2022-09-21T20:32:34.472Z,99.90
2022-09-21T20:35:35.532Z,99.90
2022-09-21T20:38:37.061Z,99.90
2022-09-21T20:41:38.150Z,99.90
2022-09-21T20:44:39.161Z,99.90
2022-09-21T20:47:40.384Z,99.90
2022-09-21T20:50:48.818Z,99.90
2022-09-21T20:53:49.858Z,99.90
2022-09-21T20:56:51.229Z,99.90
2022-09-21T20:59:52.135Z,99.90
2022-09-21T21:02:53.543Z,99.90
2022-09-21T21:05:54.520Z,99.90
2022-09-21T21:08:55.473Z,99.90
2022-09-21T21:11:56.914Z,99.90
2022-09-21T21:14:59.233Z,99.90
2022-09-21T21:17:59.994Z,99.90
2022-09-21T21:21:03.377Z,99.90
2022-09-21T21:24:22.906Z,99.90
2022-09-21T21:27:26.019Z,99.90
2022-09-21T21:30:27.228Z,99.90
2022-09-21T21:33:27.990Z,99.90
2022-09-21T21:36:29.201Z,99.90
2022-09-21T21:39:30.646Z,99.90
2022-09-21T21:42:31.837Z,99.90
2022-09-21T21:45:32.808Z,99.90
2022-09-21T21:48:33.500Z,99.90
2022-09-21T21:51:34.324Z,99.90
2022-09-21T21:54:36.236Z,99.90
2022-09-21T21:57:37.148Z,99.90
2022-09-21T22:00:37.916Z,99.90
2022-09-21T22:03:40.029Z,99.90
2022-09-21T22:06:41.730Z,99.90
2022-09-21T22:09:42.875Z,99.90
2022-09-21T22:12:44.109Z,99.90
2022-09-21T22:15:45.516Z,99.90
2022-09-21T22:18:46.893Z,99.90
2022-09-21T22:21:53.131Z,99.90
2022-09-21T22:24:54.117Z,99.90
2022-09-21T22:27:56.032Z,99.90
2022-09-21T22:30:57.095Z,99.90
2022-09-21T22:33:59.949Z,99.90
2022-09-21T22:37:01.260Z,99.90
2022-09-21T22:40:03.124Z,99.90
2022-09-21T22:43:04.025Z,99.90
2022-09-21T22:46:06.310Z,99.90
2022-09-21T22:49:08.025Z,99.90
2022-09-21T22:52:09.064Z,99.90
2022-09-21T22:55:10.104Z,99.90
2022-09-21T22:58:11.123Z,99.90
2022-09-21T23:01:19.165Z,99.90
2022-09-21T23:04:21.386Z,99.90
2022-09-21T23:07:22.377Z,99.90
2022-09-21T23:10:26.326Z,99.90
2022-09-21T23:13:27.179Z,99.90
2022-09-21T23:16:30.425Z,99.90
2022-09-21T23:19:32.127Z,99.90
2022-09-21T23:22:33.097Z,99.90
2022-09-21T23:25:34.117Z,99.90
2022-09-21T23:28:37.074Z,99.90
2022-09-21T23:31:43.789Z,99.90
2022-09-21T23:34:45.766Z,99.90
2022-09-21T23:37:46.556Z,99.90
2022-09-21T23:40:47.415Z,99.90
2022-09-21T23:43:48.161Z,99.90
2022-09-21T23:46:49.229Z,99.90
2022-09-21T23:49:50.299Z,99.90
2022-09-21T23:52:51.009Z,99.90
2022-09-21T23:55:52.043Z,99.90
2022-09-21T23:58:53.138Z,99.90
